Airfield :
LOGIN :

Register | Disclaimer

   EN    FR    IT 

 










Legend :    VFR   Marginal VFR   IFR   Intensive IFR   Very Intensive IFR
Visi :
Ceiling :
>= 8 km
>= 3000ft
5 to 8 km
1000 to 3000 ft
1500m to 5 km
500 to 1000 ft
800 to 1500m
200 to 500 ft
< 800m
< 200 ft
Symbols :   Thunderstorms  Fog  Heavy snow  Heavy precipitations  Wind > 20 kt
SIGMETs :     Misc.  Thunderstorms  Icing  Turbulence  Mountain Waves  Volcanic Ashes






- Airport Elevation : 52 ft
- IATA code : IOM


EGNS - Isle of Man

CURRENT METAR :
  • 090920Z 32017G28KT 270V350 9999 FEW020CB 07/03 Q1012 RESHGS TEMPO 4000 SHRAGS

EXPIRED METARs :
  • 090850Z 33021G31KT 290V010 9999 FEW020CB 07/02 Q1011 RESHGS TEMPO 4000 SHRAGS
  • 090820Z 32014G26KT 280V360 9999 FEW020CB 07/04 Q1010 RESHGS TEMPO 4000 SHRAGS
  • 090750Z 32018G33KT 270V360 5000 -SHGS BKN020CB 08/03 Q1009 BECMG 9999 NSW
  • 090720Z 32023G34KT 9999 FEW025 FEW030CB 09/M00 Q1007 TEMPO 7000 SHRAGS
  • 090650Z 33019G29KT 290V020 9999 FEW025 BKN045 09/02 Q1006 NOSIG

TAF TAF EGNS
Valid from the 09 at 09:00 until the 09 at 18:00 UTC


090800Z 0909/0918 33020G32KT 9999 FEW020 SCT030
TEMPO 0909/0918 4000 SHRAGS
BECMG 0911/0914 31015KT
BECMG 0915/0918 27010KT



MET'MAP, your aeronautical weather chart ! - Copyright ORBIFLY December 2007 - Disclaimer

ORBIFLY MET'MAP TEAM :

Programming & Development : Alexandra Zaïnal
Concept & original design : Baudouin d'Aumeries
Assistance for programming : Marc-Olivier Méhu
Technical & hardware support : Manuel Goepfert

Contact : metmap@orbifly.com




SOURCES & CREDITS :

   NOAA